createdAt,value
2023-04-22T00:00:25.679Z,14.30
2023-04-22T00:01:27.201Z,13.43
2023-04-22T00:02:29.741Z,12.70
2023-04-22T00:03:32.913Z,12.88
2023-04-22T00:04:37.261Z,11.20
2023-04-22T00:05:41.811Z,13.60
2023-04-22T00:06:45.476Z,13.63
2023-04-22T00:07:47.108Z,14.82
2023-04-22T00:08:49.690Z,12.40
2023-04-22T00:09:51.196Z,14.18
2023-04-22T00:10:53.701Z,14.00
2023-04-22T00:11:55.223Z,16.80
2023-04-22T00:12:57.663Z,16.75
2023-04-22T00:13:59.223Z,13.55
2023-04-22T00:15:02.153Z,15.60
2023-04-22T00:16:04.513Z,12.63
2023-04-22T00:17:07.747Z,12.48
2023-04-22T00:18:14.261Z,13.07
2023-04-22T00:19:17.126Z,13.13
2023-04-22T00:20:21.389Z,13.05
2023-04-22T00:21:25.224Z,14.25
2023-04-22T00:22:26.947Z,15.43
2023-04-22T00:23:29.426Z,14.05
2023-04-22T00:24:31.065Z,14.35
2023-04-22T00:25:34.472Z,13.55
2023-04-22T00:26:36.051Z,11.90
2023-04-22T00:27:38.565Z,10.85
2023-04-22T00:28:40.233Z,15.68
2023-04-22T00:29:42.661Z,13.98
2023-04-22T00:30:44.227Z,14.00
2023-04-22T00:31:46.839Z,13.68
2023-04-22T00:32:50.603Z,14.05
2023-04-22T00:33:53.732Z,11.68
2023-04-22T00:34:55.985Z,11.85
2023-04-22T00:35:58.652Z,14.50
2023-04-22T00:37:01.930Z,13.30
2023-04-22T00:38:04.401Z,13.35
2023-04-22T00:39:06.352Z,18.05
2023-04-22T00:40:10.367Z,12.90
2023-04-22T00:41:12.414Z,17.23
2023-04-22T00:42:15.157Z,12.18
2023-04-22T00:43:17.523Z,17.55
2023-04-22T00:44:20.160Z,13.68
2023-04-22T00:45:21.927Z,12.70
2023-04-22T00:46:24.837Z,16.10
2023-04-22T00:47:27.860Z,12.88
2023-04-22T00:48:30.769Z,12.32
2023-04-22T00:49:32.524Z,12.60
2023-04-22T00:50:35.348Z,15.95
2023-04-22T00:51:37.090Z,14.80
2023-04-22T00:52:40.976Z,14.15
2023-04-22T00:53:43.239Z,13.18
2023-04-22T00:54:46.788Z,11.43
2023-04-22T00:55:48.563Z,13.07
2023-04-22T00:56:51.357Z,13.30
2023-04-22T00:57:55.427Z,15.38
2023-04-22T00:58:58.932Z,14.27
2023-04-22T01:00:00.620Z,13.35
2023-04-22T01:01:03.474Z,15.75
2023-04-22T01:02:05.515Z,14.10
2023-04-22T01:03:08.466Z,19.20
2023-04-22T01:04:12.898Z,13.07
2023-04-22T01:05:15.476Z,14.65
2023-04-22T01:06:19.130Z,17.38
2023-04-22T01:07:21.690Z,16.17
2023-04-22T01:08:28.681Z,15.55
2023-04-22T01:09:31.588Z,12.57
2023-04-22T01:10:33.118Z,15.55
2023-04-22T01:11:36.722Z,14.70
2023-04-22T01:12:38.351Z,16.05
2023-04-22T01:13:40.931Z,13.30
2023-04-22T01:14:42.907Z,12.85
2023-04-22T01:15:45.479Z,14.45
2023-04-22T01:16:47.066Z,14.43
2023-04-22T01:17:49.887Z,14.98
2023-04-22T01:18:52.944Z,12.45
2023-04-22T01:19:55.680Z,12.02
2023-04-22T01:20:57.519Z,13.40
2023-04-22T01:22:02.448Z,13.27
2023-04-22T01:23:10.116Z,12.80
2023-04-22T01:24:14.170Z,12.80
2023-04-22T01:25:16.042Z,14.93
2023-04-22T01:26:18.517Z,17.73
2023-04-22T01:27:21.493Z,13.40
2023-04-22T01:28:24.530Z,16.73
2023-04-22T01:29:26.531Z,19.02
2023-04-22T01:30:29.232Z,16.15
2023-04-22T01:31:31.323Z,12.13
2023-04-22T01:32:34.488Z,15.23
2023-04-22T01:33:36.127Z,13.80
2023-04-22T01:34:38.654Z,13.23
2023-04-22T01:35:41.241Z,14.75
2023-04-22T01:36:44.891Z,14.75
2023-04-22T01:37:46.512Z,17.90
2023-04-22T01:38:49.183Z,14.98
2023-04-22T01:39:52.112Z,12.85
2023-04-22T01:40:54.877Z,16.30
2023-04-22T01:41:56.983Z,15.55
2023-04-22T01:43:00.429Z,14.32
2023-04-22T01:44:03.784Z,14.52
2023-04-22T01:45:07.663Z,15.07
2023-04-22T01:46:09.896Z,19.83
2023-04-22T01:47:13.364Z,19.30
2023-04-22T01:48:14.931Z,15.65
2023-04-22T01:49:18.086Z,11.93
2023-04-22T01:50:20.233Z,11.82
2023-04-22T01:51:23.524Z,14.75
2023-04-22T01:52:26.950Z,13.55
2023-04-22T01:53:29.545Z,14.32
2023-04-22T01:54:31.267Z,13.20
2023-04-22T01:55:36.117Z,12.70
2023-04-22T01:56:38.875Z,14.85
2023-04-22T01:57:41.575Z,11.32
2023-04-22T01:58:44.079Z,15.05
2023-04-22T01:59:46.588Z,16.42
2023-04-22T02:00:48.065Z,14.32
2023-04-22T02:01:50.777Z,16.27
2023-04-22T02:02:52.409Z,14.65
2023-04-22T02:03:55.145Z,17.20
2023-04-22T02:04:57.045Z,17.58
2023-04-22T02:05:59.562Z,13.73
2023-04-22T02:07:01.170Z,14.00
2023-04-22T02:08:03.671Z,12.23
2023-04-22T02:09:05.458Z,12.50
2023-04-22T02:10:09.418Z,11.35
2023-04-22T02:11:12.364Z,12.77
2023-04-22T02:12:14.851Z,12.55
2023-04-22T02:13:16.385Z,13.40
2023-04-22T02:14:18.807Z,16.27
2023-04-22T02:15:20.568Z,14.15
2023-04-22T02:16:23.364Z,14.10
2023-04-22T02:17:24.981Z,13.13
2023-04-22T02:18:27.751Z,12.73
2023-04-22T02:19:29.410Z,13.05
2023-04-22T02:20:31.922Z,15.27
2023-04-22T02:21:33.760Z,12.35
2023-04-22T02:22:36.863Z,13.73
2023-04-22T02:23:39.439Z,13.60
2023-04-22T02:24:43.054Z,13.52
2023-04-22T02:25:48.683Z,11.95
2023-04-22T02:26:52.438Z,11.65
2023-04-22T02:27:53.986Z,17.38
2023-04-22T02:28:56.439Z,12.45
2023-04-22T02:29:57.960Z,14.35
2023-04-22T02:31:00.569Z,12.07
2023-04-22T02:32:02.393Z,15.05
2023-04-22T02:33:04.932Z,14.55
2023-04-22T02:34:06.513Z,12.50
2023-04-22T02:35:09.789Z,11.73
2023-04-22T02:36:11.340Z,15.63
2023-04-22T02:37:13.930Z,12.70
2023-04-22T02:38:15.701Z,10.63
2023-04-22T02:39:18.212Z,12.18
2023-04-22T02:40:20.151Z,12.15
2023-04-22T02:41:22.642Z,10.77
2023-04-22T02:42:25.491Z,14.15
2023-04-22T02:43:28.050Z,11.98
2023-04-22T02:44:29.542Z,14.38
2023-04-22T02:45:32.053Z,11.80
2023-04-22T02:46:34.242Z,11.80
2023-04-22T02:47:36.819Z,14.02
2023-04-22T02:48:38.365Z,10.93
2023-04-22T02:49:41.369Z,11.55
2023-04-22T02:50:43.354Z,12.30
2023-04-22T02:51:45.969Z,14.20
2023-04-22T02:52:47.523Z,15.18
2023-04-22T02:53:50.117Z,11.00
2023-04-22T02:54:51.701Z,13.93
2023-04-22T02:55:55.709Z,13.60
2023-04-22T02:56:58.015Z,10.38
2023-04-22T02:58:01.864Z,13.05
2023-04-22T02:59:03.414Z,13.70
2023-04-22T03:00:08.010Z,11.50
2023-04-22T03:01:09.604Z,12.40
2023-04-22T03:02:12.272Z,13.27
2023-04-22T03:03:14.417Z,13.63
2023-04-22T03:04:17.224Z,14.23
2023-04-22T03:05:19.347Z,11.27
2023-04-22T03:06:21.842Z,13.48
2023-04-22T03:07:23.458Z,14.57
2023-04-22T03:08:26.538Z,14.80
2023-04-22T03:09:28.060Z,11.13
2023-04-22T03:10:30.540Z,13.05
2023-04-22T03:11:32.062Z,13.65
2023-04-22T03:12:34.634Z,13.07
2023-04-22T03:13:37.582Z,15.10
2023-04-22T03:14:40.016Z,10.80
2023-04-22T03:15:41.833Z,13.18
2023-04-22T03:16:44.396Z,10.75
2023-04-22T03:17:46.057Z,12.00
2023-04-22T03:18:48.612Z,12.93
2023-04-22T03:19:50.320Z,12.02
2023-04-22T03:20:52.785Z,11.68
2023-04-22T03:21:54.350Z,13.18
2023-04-22T03:22:57.219Z,13.15
2023-04-22T03:23:58.952Z,13.40
2023-04-22T03:25:01.996Z,19.05
2023-04-22T03:26:03.655Z,12.25
2023-04-22T03:27:06.702Z,13.95
2023-04-22T03:28:08.242Z,10.75
2023-04-22T03:29:12.093Z,14.02
2023-04-22T03:30:13.859Z,10.65
2023-04-22T03:31:16.350Z,14.07
2023-04-22T03:32:18.494Z,11.60
2023-04-22T03:33:21.239Z,13.95
2023-04-22T03:34:23.179Z,12.90
2023-04-22T03:35:25.924Z,11.90
2023-04-22T03:36:28.686Z,12.23
2023-04-22T03:37:30.321Z,10.63
2023-04-22T03:38:32.803Z,10.20
2023-04-22T03:39:34.377Z,16.27
2023-04-22T03:40:37.216Z,9.75
2023-04-22T03:41:39.043Z,14.25
2023-04-22T03:42:41.536Z,12.27
2023-04-22T03:43:43.025Z,10.93
2023-04-22T03:44:46.821Z,16.15
2023-04-22T03:45:49.139Z,11.90
2023-04-22T03:46:51.704Z,11.70
2023-04-22T03:47:53.874Z,10.98
2023-04-22T03:48:56.402Z,14.82
2023-04-22T03:49:58.003Z,12.25
2023-04-22T03:51:00.682Z,10.02
2023-04-22T03:52:02.524Z,10.02
2023-04-22T03:53:05.104Z,9.80
2023-04-22T03:54:06.910Z,11.25
2023-04-22T03:55:10.647Z,13.60
2023-04-22T03:56:12.181Z,14.68
2023-04-22T03:57:14.736Z,12.63
2023-04-22T03:58:16.467Z,13.75
2023-04-22T03:59:19.474Z,14.35
2023-04-22T04:00:22.451Z,13.50
2023-04-22T04:01:24.924Z,12.20
2023-04-22T04:02:26.640Z,11.90
2023-04-22T04:03:31.021Z,12.77
2023-04-22T04:04:33.442Z,11.23
2023-04-22T04:05:36.592Z,9.90
2023-04-22T04:06:38.422Z,12.40
2023-04-22T04:07:41.039Z,14.98
2023-04-22T04:08:42.578Z,12.20
2023-04-22T04:09:45.109Z,10.35
2023-04-22T04:10:46.615Z,9.35
2023-04-22T04:11:49.112Z,9.60
2023-04-22T04:12:50.656Z,12.57
2023-04-22T04:13:53.157Z,11.63
2023-04-22T04:14:54.713Z,10.75
2023-04-22T04:16:00.183Z,11.73
2023-04-22T04:17:03.601Z,12.85
2023-04-22T04:18:06.270Z,17.25
2023-04-22T04:19:08.939Z,11.95
2023-04-22T04:20:11.203Z,12.18
2023-04-22T04:21:13.715Z,13.82
2023-04-22T04:22:15.222Z,12.35
2023-04-22T04:23:18.382Z,11.07
2023-04-22T04:24:19.952Z,9.05
2023-04-22T04:25:22.594Z,11.57
2023-04-22T04:26:25.173Z,11.45
2023-04-22T04:27:27.920Z,9.93
2023-04-22T04:28:32.341Z,9.90
2023-04-22T04:29:34.928Z,10.77
2023-04-22T04:30:37.114Z,10.88
2023-04-22T04:31:40.981Z,10.88
2023-04-22T04:32:43.050Z,9.75
2023-04-22T04:33:46.629Z,12.05
2023-04-22T04:34:48.301Z,14.35
2023-04-22T04:35:51.517Z,13.30
2023-04-22T04:36:53.058Z,10.38
2023-04-22T04:37:55.525Z,9.88
2023-04-22T04:38:57.019Z,8.98
2023-04-22T04:40:00.303Z,13.35
2023-04-22T04:41:02.390Z,11.10
2023-04-22T04:42:05.035Z,12.57
2023-04-22T04:43:08.619Z,10.75
2023-04-22T04:44:11.239Z,8.82
2023-04-22T04:45:12.763Z,12.27
2023-04-22T04:46:16.625Z,13.27
2023-04-22T04:47:20.102Z,14.27
2023-04-22T04:48:25.099Z,12.45
2023-04-22T04:49:26.896Z,12.35
2023-04-22T04:50:30.390Z,11.02
2023-04-22T04:51:32.533Z,10.00
2023-04-22T04:52:35.078Z,8.23
2023-04-22T04:53:36.733Z,10.40
2023-04-22T04:54:39.245Z,12.90
2023-04-22T04:55:40.821Z,13.05
2023-04-22T04:56:43.477Z,12.48
2023-04-22T04:57:45.774Z,11.77
2023-04-22T04:58:48.312Z,9.77
2023-04-22T04:59:49.870Z,14.00
2023-04-22T05:00:52.676Z,13.57
2023-04-22T05:01:54.829Z,8.93
2023-04-22T05:02:58.902Z,11.35
2023-04-22T05:04:00.796Z,11.27
2023-04-22T05:05:03.709Z,10.55
2023-04-22T05:06:06.015Z,8.48
2023-04-22T05:07:08.714Z,12.40
2023-04-22T05:08:11.245Z,11.10
2023-04-22T05:09:12.830Z,10.43
2023-04-22T05:10:15.708Z,10.60
2023-04-22T05:11:17.269Z,8.27
2023-04-22T05:12:20.028Z,8.15
2023-04-22T05:13:22.502Z,10.57
2023-04-22T05:14:25.314Z,12.35
2023-04-22T05:15:26.913Z,14.55
2023-04-22T05:16:29.980Z,12.68
2023-04-22T05:17:31.936Z,9.32
2023-04-22T05:18:35.886Z,9.65
2023-04-22T05:19:37.526Z,12.02
2023-04-22T05:20:40.310Z,11.68
2023-04-22T05:21:41.813Z,12.52
2023-04-22T05:22:45.919Z,12.80
2023-04-22T05:23:47.599Z,11.75
2023-04-22T05:24:50.139Z,12.25
2023-04-22T05:25:53.454Z,11.02
2023-04-22T05:26:57.391Z,9.75
2023-04-22T05:27:58.921Z,10.90
2023-04-22T05:29:01.406Z,10.30
2023-04-22T05:30:03.364Z,10.07
2023-04-22T05:31:06.775Z,9.45
2023-04-22T05:32:09.522Z,9.55
2023-04-22T05:33:11.204Z,10.95
2023-04-22T05:34:15.173Z,10.85
2023-04-22T05:35:16.851Z,9.52
2023-04-22T05:36:19.381Z,14.35
2023-04-22T05:37:21.590Z,8.88
2023-04-22T05:38:24.077Z,13.85
2023-04-22T05:39:26.193Z,16.20
2023-04-22T05:40:28.664Z,11.65
2023-04-22T05:41:30.270Z,11.48
2023-04-22T05:42:32.754Z,12.75
2023-04-22T05:43:34.341Z,9.93
2023-04-22T05:44:36.765Z,11.60
2023-04-22T05:45:38.415Z,8.73
2023-04-22T05:46:40.944Z,9.75
2023-04-22T05:47:42.516Z,12.18
2023-04-22T05:48:45.011Z,11.95
2023-04-22T05:49:48.111Z,10.32
2023-04-22T05:50:50.550Z,9.95
2023-04-22T05:51:52.036Z,10.85
2023-04-22T05:52:56.597Z,10.18
2023-04-22T05:53:58.178Z,10.65
2023-04-22T05:55:00.686Z,14.80
2023-04-22T05:56:02.535Z,9.57
2023-04-22T05:57:05.413Z,11.95
2023-04-22T05:58:07.061Z,12.20
2023-04-22T05:59:09.529Z,11.77
2023-04-22T06:00:12.294Z,10.98
2023-04-22T06:01:14.902Z,12.65
2023-04-22T06:02:16.559Z,13.38
2023-04-22T06:03:19.236Z,11.43
2023-04-22T06:04:21.133Z,11.38
2023-04-22T06:05:25.328Z,12.63
2023-04-22T06:06:27.554Z,12.70
2023-04-22T06:07:30.322Z,11.45
2023-04-22T06:08:32.160Z,10.23
2023-04-22T06:09:34.686Z,9.77
2023-04-22T06:10:36.235Z,10.85
2023-04-22T06:11:38.734Z,12.98
2023-04-22T06:12:40.746Z,11.45
2023-04-22T06:13:43.203Z,11.75
2023-04-22T06:14:44.725Z,14.27
2023-04-22T06:15:47.215Z,13.93
2023-04-22T06:16:50.371Z,18.75
2023-04-22T06:17:53.145Z,12.30
2023-04-22T06:18:54.685Z,12.00
2023-04-22T06:19:57.428Z,10.00
2023-04-22T06:21:00.249Z,15.02
2023-04-22T06:22:03.060Z,11.93
2023-04-22T06:23:05.340Z,13.45
2023-04-22T06:24:09.061Z,10.27
2023-04-22T06:25:10.643Z,9.38
2023-04-22T06:26:13.485Z,11.45
2023-04-22T06:27:15.131Z,12.63
2023-04-22T06:28:17.711Z,12.20
2023-04-22T06:29:19.228Z,10.20
2023-04-22T06:30:22.062Z,14.73
2023-04-22T06:31:23.838Z,12.30
2023-04-22T06:32:26.329Z,8.10
2023-04-22T06:33:28.360Z,8.52
2023-04-22T06:34:30.841Z,8.07
2023-04-22T06:35:32.480Z,11.05
2023-04-22T06:36:38.617Z,9.40
2023-04-22T06:37:40.213Z,8.43
2023-04-22T06:38:42.644Z,9.77
2023-04-22T06:39:44.213Z,9.02
2023-04-22T06:40:46.700Z,12.00
2023-04-22T06:41:49.131Z,9.35
2023-04-22T06:42:51.769Z,9.85
2023-04-22T06:43:53.273Z,9.57
2023-04-22T06:44:55.815Z,9.95
2023-04-22T06:45:57.329Z,8.40
2023-04-22T06:46:59.937Z,10.55
2023-04-22T06:48:01.557Z,12.07
2023-04-22T06:49:04.123Z,7.55
2023-04-22T06:50:08.235Z,9.27
2023-04-22T06:51:09.845Z,8.30
2023-04-22T06:52:13.950Z,11.85
2023-04-22T06:53:15.711Z,6.50
2023-04-22T06:54:18.308Z,11.85
2023-04-22T06:55:20.170Z,7.28
2023-04-22T06:56:22.618Z,6.00
2023-04-22T06:57:24.242Z,11.20
2023-04-22T06:58:26.771Z,7.38
2023-04-22T06:59:28.300Z,8.27
2023-04-22T07:00:30.778Z,11.02
2023-04-22T07:01:35.035Z,8.25
2023-04-22T07:02:37.825Z,11.07
2023-04-22T07:03:39.572Z,8.18
2023-04-22T07:04:42.236Z,9.13
2023-04-22T07:05:44.209Z,6.07
2023-04-22T07:06:46.904Z,8.25
2023-04-22T07:07:49.805Z,5.72
2023-04-22T07:08:52.357Z,10.27
2023-04-22T07:09:53.990Z,8.82
2023-04-22T07:11:59.407Z,8.27
2023-04-22T07:13:02.120Z,9.43
2023-04-22T07:14:03.773Z,8.02
2023-04-22T07:15:07.537Z,6.85
2023-04-22T07:16:09.199Z,9.05
2023-04-22T07:17:12.358Z,9.00
2023-04-22T07:18:13.931Z,5.85
2023-04-22T07:19:25.470Z,7.30
2023-04-22T07:20:47.097Z,6.30
2023-04-22T07:22:09.732Z,11.48
2023-04-22T07:23:33.695Z,8.90
2023-04-22T07:24:56.347Z,10.25
2023-04-22T07:26:19.102Z,8.65
2023-04-22T07:27:41.594Z,11.07
2023-04-22T07:29:04.099Z,6.45
2023-04-22T07:30:26.815Z,6.10
2023-04-22T07:31:49.323Z,6.60
2023-04-22T07:33:10.969Z,9.98
2023-04-22T07:34:33.468Z,10.38
2023-04-22T07:35:55.913Z,8.60
2023-04-22T07:37:18.378Z,10.38
2023-04-22T07:38:42.270Z,9.15
2023-04-22T07:40:05.924Z,11.50
2023-04-22T07:41:28.833Z,10.45
2023-04-22T07:42:50.374Z,5.47
2023-04-22T07:44:16.434Z,9.75
2023-04-22T07:45:39.250Z,7.55
2023-04-22T07:47:01.036Z,10.32
2023-04-22T07:48:24.002Z,6.90
2023-04-22T07:49:46.639Z,6.85
2023-04-22T07:51:16.891Z,6.32
2023-04-22T07:52:39.403Z,10.45
2023-04-22T07:54:02.313Z,8.23
2023-04-22T07:55:25.191Z,5.53
2023-04-22T07:56:46.735Z,7.88
2023-04-22T07:58:09.303Z,8.18
2023-04-22T07:59:30.848Z,8.77
2023-04-22T08:00:53.396Z,6.63
2023-04-22T08:02:16.137Z,6.35
2023-04-22T08:03:38.848Z,5.72
2023-04-22T08:05:01.811Z,5.03
2023-04-22T08:06:24.647Z,7.15
2023-04-22T08:07:47.175Z,6.50
2023-04-22T08:09:11.250Z,8.35
2023-04-22T08:10:33.309Z,10.43
2023-04-22T08:11:56.630Z,8.50
2023-04-22T08:13:19.107Z,6.63
2023-04-22T08:14:41.930Z,7.00
2023-04-22T08:16:05.296Z,6.85
2023-04-22T08:17:28.015Z,7.95
2023-04-22T08:18:52.322Z,11.77
2023-04-22T08:20:15.636Z,12.43
2023-04-22T08:21:38.524Z,9.13
2023-04-22T08:23:01.155Z,7.03
2023-04-22T08:24:24.217Z,13.73
2023-04-22T08:25:46.765Z,9.38
2023-04-22T08:27:08.424Z,6.50
2023-04-22T08:28:30.954Z,10.10
2023-04-22T08:29:53.553Z,6.28
2023-04-22T08:31:16.159Z,9.52
2023-04-22T08:32:38.700Z,4.80
2023-04-22T08:34:01.485Z,7.97
2023-04-22T08:35:24.230Z,5.40
2023-04-22T08:36:45.827Z,8.45
2023-04-22T08:38:08.368Z,8.30
2023-04-22T08:39:32.591Z,11.73
2023-04-22T08:40:57.932Z,10.35
2023-04-22T08:42:19.894Z,7.15
2023-04-22T08:43:43.640Z,4.35
2023-04-22T08:45:07.246Z,9.85
2023-04-22T08:46:32.264Z,7.40
2023-04-22T08:47:55.575Z,11.43
2023-04-22T08:49:18.859Z,6.82
2023-04-22T08:50:42.049Z,9.88
2023-04-22T08:52:04.663Z,7.00
2023-04-22T08:53:28.975Z,5.70
2023-04-22T08:54:53.540Z,7.57
2023-04-22T08:56:16.623Z,8.60
2023-04-22T08:57:39.992Z,10.18
2023-04-22T08:59:02.862Z,9.77
2023-04-22T09:00:25.532Z,8.02
2023-04-22T09:01:52.053Z,6.00
2023-04-22T09:03:16.494Z,5.60
2023-04-22T09:04:38.268Z,6.70
2023-04-22T09:06:04.372Z,7.40
2023-04-22T09:07:29.540Z,9.27
2023-04-22T09:08:53.146Z,6.38
2023-04-22T09:10:17.246Z,7.10
2023-04-22T09:11:38.829Z,6.88
2023-04-22T09:13:02.184Z,4.60
2023-04-22T09:14:26.284Z,12.52
2023-04-22T09:15:47.888Z,6.28
2023-04-22T09:17:10.761Z,7.15
2023-04-22T09:18:40.999Z,7.65
2023-04-22T09:20:06.155Z,4.80
2023-04-22T09:21:29.352Z,7.20
2023-04-22T09:22:50.901Z,4.75
2023-04-22T09:24:13.700Z,7.05
2023-04-22T09:25:39.334Z,6.50
2023-04-22T09:27:03.762Z,5.18
2023-04-22T09:28:26.321Z,5.88
2023-04-22T09:29:48.950Z,6.25
2023-04-22T09:31:15.674Z,6.18
2023-04-22T09:32:38.242Z,5.68
2023-04-22T09:34:01.732Z,6.15
2023-04-22T09:35:28.939Z,6.30
2023-04-22T09:36:52.139Z,5.75
2023-04-22T09:38:14.683Z,5.57
2023-04-22T09:39:36.343Z,5.75
2023-04-22T09:41:00.393Z,5.43
2023-04-22T09:42:25.889Z,5.93
2023-04-22T09:43:47.425Z,6.85
2023-04-22T09:45:11.281Z,5.10
2023-04-22T09:46:34.869Z,8.23
2023-04-22T09:48:01.407Z,5.18
2023-04-22T09:49:26.692Z,5.22
2023-04-22T09:50:50.934Z,7.32
2023-04-22T09:52:21.660Z,7.82
2023-04-22T09:53:44.301Z,9.52
2023-04-22T09:55:10.401Z,8.68
2023-04-22T09:56:49.345Z,6.95
2023-04-22T09:58:13.821Z,7.05
2023-04-22T09:59:35.674Z,8.10
2023-04-22T10:00:59.970Z,5.85
2023-04-22T10:02:30.284Z,7.15
2023-04-22T10:03:51.951Z,5.28
2023-04-22T10:05:14.693Z,3.75
2023-04-22T10:06:37.339Z,8.32
2023-04-22T10:08:00.187Z,5.47
2023-04-22T10:09:25.033Z,4.72
2023-04-22T10:10:48.111Z,7.18
2023-04-22T10:12:11.276Z,4.38
2023-04-22T10:13:33.846Z,6.28
2023-04-22T10:14:56.355Z,4.07
2023-04-22T10:16:20.892Z,5.30
2023-04-22T10:17:45.726Z,7.70
2023-04-22T10:19:13.676Z,6.75
2023-04-22T10:20:38.042Z,6.25
2023-04-22T10:22:03.369Z,5.50
2023-04-22T10:23:26.309Z,3.67
2023-04-22T10:24:50.170Z,6.88
2023-04-22T10:26:12.727Z,6.40
2023-04-22T10:27:36.700Z,3.53
2023-04-22T10:28:58.269Z,4.00
2023-04-22T10:30:28.905Z,4.88
2023-04-22T10:31:55.572Z,6.05
2023-04-22T10:33:37.156Z,10.57
2023-04-22T10:35:14.535Z,6.03
2023-04-22T10:36:53.878Z,3.67
2023-04-22T10:38:17.582Z,5.30
2023-04-22T10:39:42.020Z,6.03
2023-04-22T10:41:04.362Z,5.35
2023-04-22T10:42:29.592Z,5.47
2023-04-22T10:43:59.633Z,6.70
2023-04-22T10:45:26.535Z,3.22
2023-04-22T10:47:01.015Z,6.65
2023-04-22T10:48:50.689Z,5.65
2023-04-22T10:50:17.485Z,6.40
2023-04-22T10:51:40.810Z,5.75
2023-04-22T10:53:36.695Z,5.60
2023-04-22T10:54:59.889Z,5.30
2023-04-22T10:56:22.353Z,6.70
2023-04-22T10:57:47.059Z,6.28
2023-04-22T10:59:17.004Z,4.20
2023-04-22T11:00:53.185Z,6.13
2023-04-22T11:02:16.773Z,4.38
2023-04-22T11:03:39.783Z,4.68
2023-04-22T11:05:20.415Z,2.83
2023-04-22T11:06:42.946Z,7.25
2023-04-22T11:08:09.694Z,9.38
2023-04-22T11:09:31.265Z,6.32
2023-04-22T11:10:55.234Z,6.03
2023-04-22T11:12:42.679Z,6.43
2023-04-22T11:14:05.878Z,4.13
2023-04-22T11:15:30.258Z,6.70
2023-04-22T11:16:53.156Z,5.28
2023-04-22T11:18:19.775Z,3.00
2023-04-22T11:19:43.296Z,6.18
2023-04-22T11:21:09.139Z,6.93
2023-04-22T11:22:34.892Z,4.47
2023-04-22T11:24:02.752Z,5.15
2023-04-22T11:25:26.305Z,3.28
2023-04-22T11:26:48.815Z,4.88
2023-04-22T11:28:11.352Z,7.68
2023-04-22T11:29:34.313Z,6.25
2023-04-22T11:31:04.857Z,5.05
2023-04-22T11:32:27.041Z,4.30
2023-04-22T11:33:50.911Z,4.50
2023-04-22T11:35:14.568Z,9.23
2023-04-22T11:36:37.185Z,3.90
2023-04-22T11:38:01.007Z,4.90
2023-04-22T11:39:23.491Z,3.40
2023-04-22T11:40:47.220Z,5.60
2023-04-22T11:42:10.426Z,4.45
2023-04-22T11:43:32.970Z,4.68
2023-04-22T11:44:54.526Z,3.30
2023-04-22T11:46:29.625Z,7.00
2023-04-22T11:47:53.145Z,3.95
2023-04-22T11:49:16.325Z,5.90
2023-04-22T11:50:40.512Z,6.47
2023-04-22T11:52:03.067Z,5.05
2023-04-22T11:53:25.869Z,7.30
2023-04-22T11:54:47.477Z,5.68
2023-04-22T11:56:10.071Z,6.15
2023-04-22T11:57:36.196Z,4.40
2023-04-22T11:58:58.659Z,5.90
2023-04-22T12:00:20.566Z,3.25
2023-04-22T12:01:44.704Z,3.08
2023-04-22T12:03:09.073Z,3.15
2023-04-22T12:04:36.351Z,3.13
2023-04-22T12:06:01.688Z,4.97
2023-04-22T12:07:23.434Z,8.43
2023-04-22T12:08:47.424Z,3.38
2023-04-22T12:10:11.186Z,3.13
2023-04-22T12:11:33.688Z,6.85
2023-04-22T12:12:55.250Z,4.22
2023-04-22T12:14:17.724Z,4.93
2023-04-22T12:15:42.348Z,4.32
2023-04-22T12:17:10.687Z,2.97
2023-04-22T12:18:34.453Z,5.18
2023-04-22T12:19:57.389Z,5.60
2023-04-22T12:21:22.300Z,8.18
2023-04-22T12:22:45.165Z,7.53
2023-04-22T12:24:11.326Z,7.20
2023-04-22T12:25:33.966Z,4.40
2023-04-22T12:26:56.818Z,3.47
2023-04-22T12:28:19.727Z,2.67
2023-04-22T12:29:52.152Z,4.05
2023-04-22T12:31:16.263Z,7.90
2023-04-22T12:32:40.149Z,6.15
2023-04-22T12:34:02.851Z,4.20
2023-04-22T12:35:25.566Z,6.47
2023-04-22T12:36:48.980Z,5.20
2023-04-22T12:38:11.576Z,5.10
2023-04-22T12:39:33.120Z,7.20
2023-04-22T12:40:55.909Z,6.32
2023-04-22T12:42:18.400Z,3.30
2023-04-22T12:43:40.973Z,6.47
2023-04-22T12:45:04.339Z,6.43
2023-04-22T12:46:27.026Z,4.30
2023-04-22T12:47:53.678Z,4.38
2023-04-22T12:49:16.358Z,5.03
2023-04-22T12:50:41.584Z,2.88
2023-04-22T12:52:03.119Z,3.92
2023-04-22T12:53:26.707Z,3.53
2023-04-22T12:54:49.206Z,3.75
2023-04-22T12:56:11.939Z,4.15
2023-04-22T12:57:34.592Z,5.13
2023-04-22T12:58:57.360Z,4.15
2023-04-22T13:00:20.957Z,4.85
2023-04-22T13:01:42.477Z,5.68
2023-04-22T13:03:06.639Z,4.35
2023-04-22T13:04:29.354Z,4.68
2023-04-22T13:05:53.257Z,3.65
2023-04-22T13:07:17.400Z,4.13
2023-04-22T13:08:39.894Z,3.47
2023-04-22T13:10:02.426Z,2.90
2023-04-22T13:11:24.585Z,5.50
2023-04-22T13:12:47.008Z,5.50
2023-04-22T13:14:09.473Z,3.88
2023-04-22T13:15:32.005Z,3.53
2023-04-22T13:16:53.550Z,3.03
2023-04-22T13:18:17.519Z,2.85
2023-04-22T13:19:40.405Z,5.05
2023-04-22T13:21:03.191Z,3.65
2023-04-22T13:22:25.762Z,5.05
2023-04-22T13:23:48.248Z,2.67
2023-04-22T13:25:11.435Z,4.07
2023-04-22T13:26:34.085Z,4.40
2023-04-22T13:27:56.508Z,2.83
2023-04-22T13:29:19.087Z,4.03
2023-04-22T13:30:41.691Z,4.78
2023-04-22T13:32:05.798Z,3.28
2023-04-22T13:33:29.690Z,3.55
2023-04-22T13:34:52.677Z,3.28
2023-04-22T13:36:15.183Z,3.92
2023-04-22T13:37:37.751Z,4.45
2023-04-22T13:39:01.369Z,5.32
2023-04-22T13:40:24.074Z,3.80
2023-04-22T13:41:46.606Z,3.97
2023-04-22T13:43:09.376Z,3.30
2023-04-22T13:44:31.811Z,2.78
2023-04-22T13:45:54.436Z,3.53
2023-04-22T13:47:17.112Z,3.72
2023-04-22T13:48:41.265Z,3.53
2023-04-22T13:50:05.373Z,5.10
2023-04-22T13:51:27.843Z,2.67
2023-04-22T13:52:50.591Z,4.63
2023-04-22T13:54:13.096Z,3.25
2023-04-22T13:55:34.691Z,2.58
2023-04-22T13:56:58.545Z,4.35
2023-04-22T13:58:21.018Z,4.40
2023-04-22T13:59:43.503Z,3.40
2023-04-22T14:01:06.516Z,3.15
2023-04-22T14:02:29.214Z,6.90
2023-04-22T14:03:54.892Z,3.58
2023-04-22T14:05:17.838Z,4.43
2023-04-22T14:06:40.316Z,4.38
2023-04-22T14:08:02.799Z,6.75
2023-04-22T14:09:25.335Z,3.67
2023-04-22T14:10:46.907Z,3.30
2023-04-22T14:12:11.371Z,7.07
2023-04-22T14:13:33.988Z,3.88
2023-04-22T14:14:56.640Z,5.82
2023-04-22T14:16:19.858Z,4.68
2023-04-22T14:17:41.569Z,2.55
2023-04-22T14:19:06.155Z,3.60
2023-04-22T14:20:28.718Z,5.60
2023-04-22T14:21:51.173Z,3.45
2023-04-22T14:23:12.677Z,4.43
2023-04-22T14:24:35.186Z,5.13
2023-04-22T14:25:57.012Z,9.50
2023-04-22T14:27:19.524Z,11.70
2023-04-22T14:28:41.775Z,22.92
2023-04-22T14:30:08.438Z,27.00
2023-04-22T14:31:30.957Z,54.53
2023-04-22T14:32:53.919Z,95.10
2023-04-22T14:34:18.076Z,22.73
2023-04-22T14:35:40.968Z,10.18
2023-04-22T14:37:03.457Z,11.77
2023-04-22T14:38:26.009Z,3.30
2023-04-22T14:39:48.635Z,4.63
2023-04-22T14:41:11.378Z,3.65
2023-04-22T14:42:34.044Z,4.75
2023-04-22T14:43:56.563Z,3.50
2023-04-22T14:45:19.306Z,5.40
2023-04-22T14:46:41.850Z,4.03
2023-04-22T14:48:03.777Z,3.55
2023-04-22T14:49:27.645Z,5.10
2023-04-22T14:50:50.275Z,3.47
2023-04-22T14:52:12.900Z,6.25
2023-04-22T14:53:35.816Z,3.72
2023-04-22T14:55:00.230Z,4.68
2023-04-22T14:56:26.179Z,3.47
2023-04-22T14:57:49.113Z,4.55
2023-04-22T14:59:11.589Z,5.38
2023-04-22T15:00:34.162Z,2.88
2023-04-22T15:01:56.717Z,3.53
2023-04-22T15:03:19.941Z,3.90
2023-04-22T15:04:44.426Z,7.40
2023-04-22T15:06:06.963Z,3.08
2023-04-22T15:07:29.733Z,4.95
2023-04-22T15:08:52.284Z,2.47
2023-04-22T15:10:17.036Z,3.03
2023-04-22T15:11:39.560Z,2.13
2023-04-22T15:13:02.037Z,2.78
2023-04-22T15:14:23.536Z,3.95
2023-04-22T15:15:46.765Z,3.58
2023-04-22T15:17:08.466Z,4.32
2023-04-22T15:18:31.030Z,3.22
2023-04-22T15:19:57.589Z,3.75
2023-04-22T15:21:20.064Z,5.85
2023-04-22T15:22:42.792Z,3.47
2023-04-22T15:24:05.524Z,3.42
2023-04-22T15:25:28.069Z,6.13
2023-04-22T15:26:52.830Z,4.40
2023-04-22T15:28:15.430Z,4.40
2023-04-22T15:29:41.028Z,5.93
2023-04-22T15:31:03.938Z,5.25
2023-04-22T15:32:26.534Z,5.20
2023-04-22T15:33:49.007Z,4.28
2023-04-22T15:35:12.797Z,8.35
2023-04-22T15:36:35.434Z,7.15
2023-04-22T15:37:58.708Z,3.97
2023-04-22T15:39:21.409Z,4.50
2023-04-22T15:40:44.319Z,3.25
2023-04-22T15:42:06.861Z,3.42
2023-04-22T15:43:28.430Z,4.30
2023-04-22T15:44:50.931Z,6.30
2023-04-22T15:46:14.605Z,12.32
2023-04-22T15:47:38.757Z,27.05
2023-04-22T15:49:01.898Z,7.22
2023-04-22T15:50:26.370Z,6.68